sensor_id;sensor_type;location;lat;lon;timestamp;P1;durP1;ratioP1;P2;durP2;ratioP2
53145;SDS011;39042;53.150;5.898;2023-11-19T00:00:42;41.72;;;7.20;;
53145;SDS011;39042;53.150;5.898;2023-11-19T00:03:08;35.22;;;7.13;;
53145;SDS011;39042;53.150;5.898;2023-11-19T00:05:36;41.85;;;6.38;;
53145;SDS011;39042;53.150;5.898;2023-11-19T00:08:02;45.33;;;6.88;;
53145;SDS011;39042;53.150;5.898;2023-11-19T00:10:28;37.10;;;7.10;;
53145;SDS011;39042;53.150;5.898;2023-11-19T00:12:53;42.20;;;6.20;;
53145;SDS011;39042;53.150;5.898;2023-11-19T00:15:19;37.63;;;6.10;;
53145;SDS011;39042;53.150;5.898;2023-11-19T00:17:46;36.63;;;4.83;;
53145;SDS011;39042;53.150;5.898;2023-11-19T00:20:19;32.58;;;5.03;;
53145;SDS011;39042;53.150;5.898;2023-11-19T00:22:47;28.42;;;4.70;;
53145;SDS011;39042;53.150;5.898;2023-11-19T00:25:16;33.67;;;4.45;;
53145;SDS011;39042;53.150;5.898;2023-11-19T00:27:43;33.97;;;4.90;;
53145;SDS011;39042;53.150;5.898;2023-11-19T00:30:11;33.50;;;4.28;;
53145;SDS011;39042;53.150;5.898;2023-11-19T00:32:38;30.58;;;4.15;;
53145;SDS011;39042;53.150;5.898;2023-11-19T00:37:32;35.60;;;5.30;;
53145;SDS011;39042;53.150;5.898;2023-11-19T00:39:58;37.47;;;4.47;;
53145;SDS011;39042;53.150;5.898;2023-11-19T00:42:24;33.42;;;5.13;;
53145;SDS011;39042;53.150;5.898;2023-11-19T00:44:50;33.80;;;4.60;;
53145;SDS011;39042;53.150;5.898;2023-11-19T00:47:17;40.17;;;5.45;;
53145;SDS011;39042;53.150;5.898;2023-11-19T00:49:46;23.85;;;4.43;;
53145;SDS011;39042;53.150;5.898;2023-11-19T00:52:14;39.22;;;4.40;;
53145;SDS011;39042;53.150;5.898;2023-11-19T00:54:41;30.48;;;4.30;;
53145;SDS011;39042;53.150;5.898;2023-11-19T00:57:07;31.77;;;4.25;;
53145;SDS011;39042;53.150;5.898;2023-11-19T00:59:33;35.90;;;5.13;;
53145;SDS011;39042;53.150;5.898;2023-11-19T01:01:59;48.10;;;5.63;;
53145;SDS011;39042;53.150;5.898;2023-11-19T01:04:35;37.42;;;4.80;;
53145;SDS011;39042;53.150;5.898;2023-11-19T01:07:02;30.17;;;4.82;;
53145;SDS011;39042;53.150;5.898;2023-11-19T01:09:31;34.50;;;5.10;;
53145;SDS011;39042;53.150;5.898;2023-11-19T01:12:11;29.65;;;4.30;;
53145;SDS011;39042;53.150;5.898;2023-11-19T01:14:39;32.28;;;4.22;;
53145;SDS011;39042;53.150;5.898;2023-11-19T01:56:17;35.92;;;4.93;;
53145;SDS011;39042;53.150;5.898;2023-11-19T02:08:06;33.47;;;4.75;;
53145;SDS011;39042;53.150;5.898;2023-11-19T02:10:52;31.75;;;4.65;;
53145;SDS011;39042;53.150;5.898;2023-11-19T02:13:22;36.70;;;5.07;;
53145;SDS011;39042;53.150;5.898;2023-11-19T02:15:48;39.65;;;5.05;;
53145;SDS011;39042;53.150;5.898;2023-11-19T02:18:17;31.57;;;6.13;;
53145;SDS011;39042;53.150;5.898;2023-11-19T02:20:44;36.75;;;4.75;;
53145;SDS011;39042;53.150;5.898;2023-11-19T02:23:11;42.78;;;6.50;;
53145;SDS011;39042;53.150;5.898;2023-11-19T02:25:38;33.50;;;4.55;;
53145;SDS011;39042;53.150;5.898;2023-11-19T02:28:05;39.13;;;5.15;;
53145;SDS011;39042;53.150;5.898;2023-11-19T02:32:58;34.28;;;4.40;;
53145;SDS011;39042;53.150;5.898;2023-11-19T02:35:27;35.60;;;5.20;;
53145;SDS011;39042;53.150;5.898;2023-11-19T02:37:56;32.05;;;4.70;;
53145;SDS011;39042;53.150;5.898;2023-11-19T02:40:23;34.28;;;5.40;;
53145;SDS011;39042;53.150;5.898;2023-11-19T02:42:50;37.70;;;5.15;;
53145;SDS011;39042;53.150;5.898;2023-11-19T02:45:16;48.60;;;5.90;;
53145;SDS011;39042;53.150;5.898;2023-11-19T02:47:42;35.50;;;5.20;;
53145;SDS011;39042;53.150;5.898;2023-11-19T02:50:12;30.17;;;4.55;;
53145;SDS011;39042;53.150;5.898;2023-11-19T02:52:42;39.50;;;5.05;;
53145;SDS011;39042;53.150;5.898;2023-11-19T02:55:09;39.53;;;5.18;;
53145;SDS011;39042;53.150;5.898;2023-11-19T02:57:41;30.42;;;4.97;;
53145;SDS011;39042;53.150;5.898;2023-11-19T03:00:20;32.45;;;5.10;;
53145;SDS011;39042;53.150;5.898;2023-11-19T03:02:59;35.17;;;5.90;;
53145;SDS011;39042;53.150;5.898;2023-11-19T03:05:30;35.10;;;5.43;;
53145;SDS011;39042;53.150;5.898;2023-11-19T03:07:56;39.17;;;5.03;;
53145;SDS011;39042;53.150;5.898;2023-11-19T03:10:22;33.47;;;5.10;;
53145;SDS011;39042;53.150;5.898;2023-11-19T03:12:49;36.05;;;5.78;;
53145;SDS011;39042;53.150;5.898;2023-11-19T03:15:15;38.33;;;6.35;;
53145;SDS011;39042;53.150;5.898;2023-11-19T03:17:41;42.22;;;5.57;;
53145;SDS011;39042;53.150;5.898;2023-11-19T03:20:09;33.20;;;4.70;;
53145;SDS011;39042;53.150;5.898;2023-11-19T03:22:36;40.40;;;5.65;;
53145;SDS011;39042;53.150;5.898;2023-11-19T03:27:29;34.35;;;4.60;;
53145;SDS011;39042;53.150;5.898;2023-11-19T03:29:55;37.05;;;5.60;;
53145;SDS011;39042;53.150;5.898;2023-11-19T03:32:20;35.13;;;5.77;;
53145;SDS011;39042;53.150;5.898;2023-11-19T03:34:46;36.83;;;6.53;;
53145;SDS011;39042;53.150;5.898;2023-11-19T03:37:12;34.03;;;4.97;;
53145;SDS011;39042;53.150;5.898;2023-11-19T03:39:42;35.70;;;5.25;;
53145;SDS011;39042;53.150;5.898;2023-11-19T03:42:11;39.85;;;5.45;;
53145;SDS011;39042;53.150;5.898;2023-11-19T03:44:38;36.40;;;5.05;;
53145;SDS011;39042;53.150;5.898;2023-11-19T03:47:04;46.88;;;5.25;;
53145;SDS011;39042;53.150;5.898;2023-11-19T03:49:30;35.90;;;4.70;;
53145;SDS011;39042;53.150;5.898;2023-11-19T03:51:55;33.70;;;5.33;;
53145;SDS011;39042;53.150;5.898;2023-11-19T03:54:22;39.63;;;5.53;;
53145;SDS011;39042;53.150;5.898;2023-11-19T03:56:48;31.35;;;4.70;;
53145;SDS011;39042;53.150;5.898;2023-11-19T03:59:14;34.17;;;4.75;;
53145;SDS011;39042;53.150;5.898;2023-11-19T04:01:40;36.50;;;5.07;;
53145;SDS011;39042;53.150;5.898;2023-11-19T04:04:06;42.20;;;6.05;;
53145;SDS011;39042;53.150;5.898;2023-11-19T04:06:32;40.83;;;5.80;;
53145;SDS011;39042;53.150;5.898;2023-11-19T04:08:58;47.40;;;6.13;;
53145;SDS011;39042;53.150;5.898;2023-11-19T04:11:24;40.37;;;5.93;;
53145;SDS011;39042;53.150;5.898;2023-11-19T04:13:49;44.30;;;5.63;;
53145;SDS011;39042;53.150;5.898;2023-11-19T04:16:15;42.90;;;5.60;;
53145;SDS011;39042;53.150;5.898;2023-11-19T04:18:41;40.70;;;6.70;;
53145;SDS011;39042;53.150;5.898;2023-11-19T04:21:07;44.57;;;6.60;;
53145;SDS011;39042;53.150;5.898;2023-11-19T04:23:33;42.55;;;6.05;;
53145;SDS011;39042;53.150;5.898;2023-11-19T04:26:01;46.80;;;5.95;;
53145;SDS011;39042;53.150;5.898;2023-11-19T04:28:29;39.50;;;6.00;;
53145;SDS011;39042;53.150;5.898;2023-11-19T04:30:55;41.53;;;5.70;;
53145;SDS011;39042;53.150;5.898;2023-11-19T04:33:21;45.72;;;5.85;;
53145;SDS011;39042;53.150;5.898;2023-11-19T04:35:47;43.63;;;5.53;;
53145;SDS011;39042;53.150;5.898;2023-11-19T04:38:13;35.93;;;5.20;;
53145;SDS011;39042;53.150;5.898;2023-11-19T04:40:39;34.38;;;5.43;;
53145;SDS011;39042;53.150;5.898;2023-11-19T04:43:05;34.57;;;5.27;;
53145;SDS011;39042;53.150;5.898;2023-11-19T04:45:32;39.50;;;5.80;;
53145;SDS011;39042;53.150;5.898;2023-11-19T04:47:58;37.60;;;5.80;;
53145;SDS011;39042;53.150;5.898;2023-11-19T04:50:24;38.13;;;6.33;;
53145;SDS011;39042;53.150;5.898;2023-11-19T04:52:52;42.05;;;6.28;;
53145;SDS011;39042;53.150;5.898;2023-11-19T04:57:44;45.28;;;6.15;;
53145;SDS011;39042;53.150;5.898;2023-11-19T05:00:10;41.80;;;6.17;;
53145;SDS011;39042;53.150;5.898;2023-11-19T05:02:36;40.08;;;6.10;;
53145;SDS011;39042;53.150;5.898;2023-11-19T05:05:02;54.77;;;7.70;;
53145;SDS011;39042;53.150;5.898;2023-11-19T05:07:29;39.35;;;6.13;;
53145;SDS011;39042;53.150;5.898;2023-11-19T05:09:55;40.20;;;6.28;;
53145;SDS011;39042;53.150;5.898;2023-11-19T05:12:22;32.53;;;5.83;;
53145;SDS011;39042;53.150;5.898;2023-11-19T05:14:48;46.92;;;7.72;;
53145;SDS011;39042;53.150;5.898;2023-11-19T05:17:16;50.17;;;6.40;;
53145;SDS011;39042;53.150;5.898;2023-11-19T05:19:46;47.75;;;7.60;;
53145;SDS011;39042;53.150;5.898;2023-11-19T05:22:13;43.35;;;5.95;;
53145;SDS011;39042;53.150;5.898;2023-11-19T05:24:39;43.55;;;6.38;;
53145;SDS011;39042;53.150;5.898;2023-11-19T05:27:06;41.97;;;6.78;;
53145;SDS011;39042;53.150;5.898;2023-11-19T05:29:33;38.20;;;6.38;;
53145;SDS011;39042;53.150;5.898;2023-11-19T05:31:59;42.80;;;5.60;;
53145;SDS011;39042;53.150;5.898;2023-11-19T05:34:25;48.42;;;5.80;;
53145;SDS011;39042;53.150;5.898;2023-11-19T05:36:51;37.10;;;6.57;;
53145;SDS011;39042;53.150;5.898;2023-11-19T05:39:17;39.87;;;7.03;;
53145;SDS011;39042;53.150;5.898;2023-11-19T05:44:09;44.65;;;5.85;;
53145;SDS011;39042;53.150;5.898;2023-11-19T05:46:35;37.47;;;5.73;;
53145;SDS011;39042;53.150;5.898;2023-11-19T05:49:08;32.00;;;5.63;;
53145;SDS011;39042;53.150;5.898;2023-11-19T05:51:36;41.90;;;6.85;;
53145;SDS011;39042;53.150;5.898;2023-11-19T05:54:11;46.65;;;6.80;;
53145;SDS011;39042;53.150;5.898;2023-11-19T06:33:57;32.83;;;5.63;;
53145;SDS011;39042;53.150;5.898;2023-11-19T06:37:24;32.97;;;6.20;;
53145;SDS011;39042;53.150;5.898;2023-11-19T06:48:57;39.28;;;5.35;;
53145;SDS011;39042;53.150;5.898;2023-11-19T07:03:23;36.92;;;6.95;;
53145;SDS011;39042;53.150;5.898;2023-11-19T07:07:08;43.60;;;6.50;;
53145;SDS011;39042;53.150;5.898;2023-11-19T07:13:43;42.53;;;12.70;;
53145;SDS011;39042;53.150;5.898;2023-11-19T07:24:23;46.90;;;12.63;;
53145;SDS011;39042;53.150;5.898;2023-11-19T08:15:08;41.00;;;8.00;;
53145;SDS011;39042;53.150;5.898;2023-11-19T09:06:38;40.88;;;6.68;;
53145;SDS011;39042;53.150;5.898;2023-11-19T09:13:54;35.33;;;5.32;;
53145;SDS011;39042;53.150;5.898;2023-11-19T09:35:17;41.08;;;6.60;;
53145;SDS011;39042;53.150;5.898;2023-11-19T09:50:05;41.90;;;6.72;;
53145;SDS011;39042;53.150;5.898;2023-11-19T09:53:40;38.78;;;7.13;;
53145;SDS011;39042;53.150;5.898;2023-11-19T10:01:04;39.78;;;5.20;;
53145;SDS011;39042;53.150;5.898;2023-11-19T10:04:42;38.15;;;5.00;;
53145;SDS011;39042;53.150;5.898;2023-11-19T10:19:53;40.25;;;5.88;;
53145;SDS011;39042;53.150;5.898;2023-11-19T10:22:21;29.35;;;5.25;;
53145;SDS011;39042;53.150;5.898;2023-11-19T10:25:12;33.35;;;5.88;;
53145;SDS011;39042;53.150;5.898;2023-11-19T10:43:05;27.35;;;4.38;;
53145;SDS011;39042;53.150;5.898;2023-11-19T10:45:34;36.05;;;4.68;;
53145;SDS011;39042;53.150;5.898;2023-11-19T10:48:00;33.45;;;4.38;;
53145;SDS011;39042;53.150;5.898;2023-11-19T10:50:45;32.58;;;4.72;;
53145;SDS011;39042;53.150;5.898;2023-11-19T10:53:25;24.95;;;4.40;;
53145;SDS011;39042;53.150;5.898;2023-11-19T10:55:53;26.73;;;4.50;;
53145;SDS011;39042;53.150;5.898;2023-11-19T11:09:59;29.77;;;4.85;;
53145;SDS011;39042;53.150;5.898;2023-11-19T11:45:46;25.70;;;3.95;;
53145;SDS011;39042;53.150;5.898;2023-11-19T11:48:15;35.00;;;4.72;;
53145;SDS011;39042;53.150;5.898;2023-11-19T11:50:55;35.00;;;5.07;;
53145;SDS011;39042;53.150;5.898;2023-11-19T12:00:21;30.42;;;4.13;;
53145;SDS011;39042;53.150;5.898;2023-11-19T13:02:13;32.25;;;5.93;;
53145;SDS011;39042;53.150;5.898;2023-11-19T13:04:38;26.47;;;4.70;;
53145;SDS011;39042;53.150;5.898;2023-11-19T13:07:04;26.90;;;4.63;;
53145;SDS011;39042;53.150;5.898;2023-11-19T13:09:30;27.70;;;5.13;;
53145;SDS011;39042;53.150;5.898;2023-11-19T13:11:56;32.88;;;5.93;;
53145;SDS011;39042;53.150;5.898;2023-11-19T13:17:01;31.42;;;4.63;;
53145;SDS011;39042;53.150;5.898;2023-11-19T13:19:27;26.73;;;4.67;;
53145;SDS011;39042;53.150;5.898;2023-11-19T13:21:53;33.00;;;5.67;;
53145;SDS011;39042;53.150;5.898;2023-11-19T13:24:19;35.10;;;5.97;;
53145;SDS011;39042;53.150;5.898;2023-11-19T13:26:44;34.00;;;7.07;;
53145;SDS011;39042;53.150;5.898;2023-11-19T13:29:11;31.35;;;4.18;;
53145;SDS011;39042;53.150;5.898;2023-11-19T13:31:37;34.93;;;5.33;;
53145;SDS011;39042;53.150;5.898;2023-11-19T13:34:03;33.75;;;6.75;;
53145;SDS011;39042;53.150;5.898;2023-11-19T13:36:29;37.95;;;8.05;;
53145;SDS011;39042;53.150;5.898;2023-11-19T13:38:56;31.38;;;6.28;;
53145;SDS011;39042;53.150;5.898;2023-11-19T13:41:27;31.52;;;4.50;;
53145;SDS011;39042;53.150;5.898;2023-11-19T13:43:53;25.90;;;4.95;;
53145;SDS011;39042;53.150;5.898;2023-11-19T13:46:20;29.05;;;4.70;;
53145;SDS011;39042;53.150;5.898;2023-11-19T13:48:46;32.47;;;4.95;;
53145;SDS011;39042;53.150;5.898;2023-11-19T13:51:14;28.60;;;8.18;;
53145;SDS011;39042;53.150;5.898;2023-11-19T13:53:40;34.55;;;5.97;;
53145;SDS011;39042;53.150;5.898;2023-11-19T13:56:07;27.35;;;4.80;;
53145;SDS011;39042;53.150;5.898;2023-11-19T13:58:33;25.30;;;4.70;;
53145;SDS011;39042;53.150;5.898;2023-11-19T14:01:00;30.73;;;5.10;;
53145;SDS011;39042;53.150;5.898;2023-11-19T14:05:52;27.17;;;6.60;;
53145;SDS011;39042;53.150;5.898;2023-11-19T14:08:20;28.17;;;5.18;;
53145;SDS011;39042;53.150;5.898;2023-11-19T14:10:46;27.25;;;6.47;;
53145;SDS011;39042;53.150;5.898;2023-11-19T14:13:12;43.70;;;8.10;;
53145;SDS011;39042;53.150;5.898;2023-11-19T14:15:40;34.47;;;5.95;;
53145;SDS011;39042;53.150;5.898;2023-11-19T14:18:07;37.53;;;8.30;;
53145;SDS011;39042;53.150;5.898;2023-11-19T14:20:33;36.70;;;9.13;;
53145;SDS011;39042;53.150;5.898;2023-11-19T14:23:01;40.20;;;10.07;;
53145;SDS011;39042;53.150;5.898;2023-11-19T14:25:26;33.43;;;7.83;;
53145;SDS011;39042;53.150;5.898;2023-11-19T14:27:52;36.90;;;6.03;;
53145;SDS011;39042;53.150;5.898;2023-11-19T14:30:18;40.87;;;8.70;;
53145;SDS011;39042;53.150;5.898;2023-11-19T14:32:44;29.37;;;5.67;;
53145;SDS011;39042;53.150;5.898;2023-11-19T14:35:11;31.67;;;5.03;;
53145;SDS011;39042;53.150;5.898;2023-11-19T14:37:37;35.60;;;6.72;;
53145;SDS011;39042;53.150;5.898;2023-11-19T14:40:03;40.85;;;10.70;;
53145;SDS011;39042;53.150;5.898;2023-11-19T14:42:31;27.73;;;6.70;;
53145;SDS011;39042;53.150;5.898;2023-11-19T14:44:57;29.10;;;7.68;;
53145;SDS011;39042;53.150;5.898;2023-11-19T14:47:23;27.23;;;5.75;;
53145;SDS011;39042;53.150;5.898;2023-11-19T14:49:49;30.08;;;8.15;;
53145;SDS011;39042;53.150;5.898;2023-11-19T14:54:45;25.65;;;3.92;;
53145;SDS011;39042;53.150;5.898;2023-11-19T14:57:11;29.95;;;4.70;;
53145;SDS011;39042;53.150;5.898;2023-11-19T14:59:38;26.05;;;4.05;;
53145;SDS011;39042;53.150;5.898;2023-11-19T15:02:04;31.77;;;4.20;;
53145;SDS011;39042;53.150;5.898;2023-11-19T15:04:30;23.30;;;3.78;;
53145;SDS011;39042;53.150;5.898;2023-11-19T15:07:00;28.58;;;3.65;;
53145;SDS011;39042;53.150;5.898;2023-11-19T15:09:26;23.10;;;3.58;;
53145;SDS011;39042;53.150;5.898;2023-11-19T15:11:55;25.93;;;3.73;;
53145;SDS011;39042;53.150;5.898;2023-11-19T15:14:23;28.98;;;4.20;;
53145;SDS011;39042;53.150;5.898;2023-11-19T15:16:49;21.70;;;3.28;;
53145;SDS011;39042;53.150;5.898;2023-11-19T15:19:16;34.10;;;4.68;;
53145;SDS011;39042;53.150;5.898;2023-11-19T15:21:42;36.00;;;4.45;;
53145;SDS011;39042;53.150;5.898;2023-11-19T15:24:09;35.53;;;3.88;;
53145;SDS011;39042;53.150;5.898;2023-11-19T15:26:36;40.00;;;3.75;;
53145;SDS011;39042;53.150;5.898;2023-11-19T15:29:05;31.83;;;3.47;;
53145;SDS011;39042;53.150;5.898;2023-11-19T15:31:31;26.52;;;3.95;;
53145;SDS011;39042;53.150;5.898;2023-11-19T15:33:57;32.13;;;4.38;;
53145;SDS011;39042;53.150;5.898;2023-11-19T15:36:23;24.95;;;3.55;;
53145;SDS011;39042;53.150;5.898;2023-11-19T15:38:49;29.05;;;3.95;;
53145;SDS011;39042;53.150;5.898;2023-11-19T15:41:15;31.80;;;5.07;;
53145;SDS011;39042;53.150;5.898;2023-11-19T15:43:41;35.40;;;4.97;;
53145;SDS011;39042;53.150;5.898;2023-11-19T15:46:08;28.27;;;5.27;;
53145;SDS011;39042;53.150;5.898;2023-11-19T15:48:34;29.88;;;5.05;;
53145;SDS011;39042;53.150;5.898;2023-11-19T15:51:00;23.33;;;3.80;;
53145;SDS011;39042;53.150;5.898;2023-11-19T15:53:27;30.42;;;3.88;;
53145;SDS011;39042;53.150;5.898;2023-11-19T15:55:54;26.17;;;3.63;;
53145;SDS011;39042;53.150;5.898;2023-11-19T15:58:19;26.17;;;4.30;;
53145;SDS011;39042;53.150;5.898;2023-11-19T16:00:47;32.13;;;4.50;;
53145;SDS011;39042;53.150;5.898;2023-11-19T16:03:13;29.33;;;4.32;;
53145;SDS011;39042;53.150;5.898;2023-11-19T16:05:40;31.27;;;4.00;;
53145;SDS011;39042;53.150;5.898;2023-11-19T16:08:06;25.73;;;3.95;;
53145;SDS011;39042;53.150;5.898;2023-11-19T16:10:33;28.83;;;4.88;;
53145;SDS011;39042;53.150;5.898;2023-11-19T16:12:59;36.92;;;6.60;;
53145;SDS011;39042;53.150;5.898;2023-11-19T16:15:25;30.13;;;4.50;;
53145;SDS011;39042;53.150;5.898;2023-11-19T16:17:50;30.67;;;5.33;;
53145;SDS011;39042;53.150;5.898;2023-11-19T16:20:16;31.00;;;5.13;;
53145;SDS011;39042;53.150;5.898;2023-11-19T16:22:42;30.27;;;3.93;;
53145;SDS011;39042;53.150;5.898;2023-11-19T16:25:08;32.50;;;5.90;;
53145;SDS011;39042;53.150;5.898;2023-11-19T16:27:35;32.28;;;5.28;;
53145;SDS011;39042;53.150;5.898;2023-11-19T16:30:01;33.70;;;4.18;;
53145;SDS011;39042;53.150;5.898;2023-11-19T16:32:27;30.00;;;4.50;;
53145;SDS011;39042;53.150;5.898;2023-11-19T16:34:56;30.83;;;5.57;;
53145;SDS011;39042;53.150;5.898;2023-11-19T16:37:22;32.30;;;8.83;;
53145;SDS011;39042;53.150;5.898;2023-11-19T16:39:48;36.38;;;10.02;;
53145;SDS011;39042;53.150;5.898;2023-11-19T16:42:13;44.65;;;16.55;;
53145;SDS011;39042;53.150;5.898;2023-11-19T16:44:40;32.78;;;8.75;;
53145;SDS011;39042;53.150;5.898;2023-11-19T16:47:06;40.25;;;9.95;;
53145;SDS011;39042;53.150;5.898;2023-11-19T16:49:33;35.90;;;12.63;;
53145;SDS011;39042;53.150;5.898;2023-11-19T16:52:01;32.10;;;8.70;;
53145;SDS011;39042;53.150;5.898;2023-11-19T16:54:30;28.48;;;9.15;;
53145;SDS011;39042;53.150;5.898;2023-11-19T16:56:57;35.88;;;8.57;;
53145;SDS011;39042;53.150;5.898;2023-11-19T16:59:23;33.78;;;6.53;;
53145;SDS011;39042;53.150;5.898;2023-11-19T17:01:49;34.10;;;6.47;;
53145;SDS011;39042;53.150;5.898;2023-11-19T17:04:15;41.13;;;6.40;;
53145;SDS011;39042;53.150;5.898;2023-11-19T17:09:09;29.63;;;5.70;;
53145;SDS011;39042;53.150;5.898;2023-11-19T17:11:41;39.08;;;5.78;;
53145;SDS011;39042;53.150;5.898;2023-11-19T17:14:08;46.00;;;12.57;;
53145;SDS011;39042;53.150;5.898;2023-11-19T17:16:34;66.00;;;35.22;;
53145;SDS011;39042;53.150;5.898;2023-11-19T17:19:05;55.67;;;25.20;;
53145;SDS011;39042;53.150;5.898;2023-11-19T17:21:33;43.35;;;12.25;;
53145;SDS011;39042;53.150;5.898;2023-11-19T17:23:59;50.78;;;21.08;;
53145;SDS011;39042;53.150;5.898;2023-11-19T17:26:24;48.23;;;23.47;;
53145;SDS011;39042;53.150;5.898;2023-11-19T17:28:51;57.05;;;24.55;;
53145;SDS011;39042;53.150;5.898;2023-11-19T17:31:16;49.77;;;16.97;;
53145;SDS011;39042;53.150;5.898;2023-11-19T17:33:42;40.30;;;7.93;;
53145;SDS011;39042;53.150;5.898;2023-11-19T17:36:09;42.80;;;10.00;;
53145;SDS011;39042;53.150;5.898;2023-11-19T17:38:35;48.58;;;11.30;;
53145;SDS011;39042;53.150;5.898;2023-11-19T17:41:01;33.30;;;7.23;;
53145;SDS011;39042;53.150;5.898;2023-11-19T17:43:27;37.13;;;6.43;;
53145;SDS011;39042;53.150;5.898;2023-11-19T17:45:53;76.37;;;42.17;;
53145;SDS011;39042;53.150;5.898;2023-11-19T17:48:22;88.30;;;46.65;;
53145;SDS011;39042;53.150;5.898;2023-11-19T17:50:47;72.30;;;41.53;;
53145;SDS011;39042;53.150;5.898;2023-11-19T17:53:13;57.70;;;27.13;;
53145;SDS011;39042;53.150;5.898;2023-11-19T17:55:39;74.30;;;36.13;;
53145;SDS011;39042;53.150;5.898;2023-11-19T17:58:05;49.75;;;15.73;;
53145;SDS011;39042;53.150;5.898;2023-11-19T18:00:32;34.97;;;13.48;;
53145;SDS011;39042;53.150;5.898;2023-11-19T18:02:58;32.43;;;8.10;;
53145;SDS011;39042;53.150;5.898;2023-11-19T18:05:24;32.90;;;11.90;;
53145;SDS011;39042;53.150;5.898;2023-11-19T18:07:49;31.80;;;7.13;;
53145;SDS011;39042;53.150;5.898;2023-11-19T18:10:15;36.13;;;8.27;;
53145;SDS011;39042;53.150;5.898;2023-11-19T18:12:42;37.63;;;6.47;;
53145;SDS011;39042;53.150;5.898;2023-11-19T18:15:08;27.00;;;4.22;;
53145;SDS011;39042;53.150;5.898;2023-11-19T18:17:38;25.98;;;4.05;;
53145;SDS011;39042;53.150;5.898;2023-11-19T18:20:07;24.70;;;3.85;;
53145;SDS011;39042;53.150;5.898;2023-11-19T18:22:37;26.48;;;3.55;;
53145;SDS011;39042;53.150;5.898;2023-11-19T18:27:30;30.52;;;4.63;;
53145;SDS011;39042;53.150;5.898;2023-11-19T18:29:57;31.08;;;4.15;;
53145;SDS011;39042;53.150;5.898;2023-11-19T18:32:23;29.52;;;4.95;;
53145;SDS011;39042;53.150;5.898;2023-11-19T18:34:49;46.77;;;21.70;;
53145;SDS011;39042;53.150;5.898;2023-11-19T18:37:14;32.50;;;14.43;;
53145;SDS011;39042;53.150;5.898;2023-11-19T18:39:41;45.67;;;28.23;;
53145;SDS011;39042;53.150;5.898;2023-11-19T18:42:07;56.47;;;30.30;;
53145;SDS011;39042;53.150;5.898;2023-11-19T18:44:33;45.97;;;13.30;;
53145;SDS011;39042;53.150;5.898;2023-11-19T18:46:59;46.85;;;18.75;;
53145;SDS011;39042;53.150;5.898;2023-11-19T18:49:25;43.75;;;13.57;;
53145;SDS011;39042;53.150;5.898;2023-11-19T18:51:52;31.80;;;6.93;;
53145;SDS011;39042;53.150;5.898;2023-11-19T18:54:18;37.90;;;8.25;;
53145;SDS011;39042;53.150;5.898;2023-11-19T18:56:46;40.03;;;7.57;;
53145;SDS011;39042;53.150;5.898;2023-11-19T18:59:12;37.35;;;6.85;;
53145;SDS011;39042;53.150;5.898;2023-11-19T19:01:39;33.20;;;7.80;;
53145;SDS011;39042;53.150;5.898;2023-11-19T19:04:07;30.25;;;8.38;;
53145;SDS011;39042;53.150;5.898;2023-11-19T19:06:37;34.45;;;6.38;;
53145;SDS011;39042;53.150;5.898;2023-11-19T19:09:03;35.00;;;4.75;;
53145;SDS011;39042;53.150;5.898;2023-11-19T19:11:29;34.90;;;5.33;;
53145;SDS011;39042;53.150;5.898;2023-11-19T19:13:57;33.30;;;4.03;;
53145;SDS011;39042;53.150;5.898;2023-11-19T19:16:23;30.63;;;4.80;;
53145;SDS011;39042;53.150;5.898;2023-11-19T19:18:49;32.17;;;3.60;;
53145;SDS011;39042;53.150;5.898;2023-11-19T19:21:14;20.60;;;3.07;;
53145;SDS011;39042;53.150;5.898;2023-11-19T19:23:40;30.57;;;3.60;;
53145;SDS011;39042;53.150;5.898;2023-11-19T19:26:09;25.67;;;4.80;;
53145;SDS011;39042;53.150;5.898;2023-11-19T19:28:36;28.38;;;3.95;;
53145;SDS011;39042;53.150;5.898;2023-11-19T19:31:06;22.17;;;3.22;;
53145;SDS011;39042;53.150;5.898;2023-11-19T19:33:32;24.10;;;3.65;;
53145;SDS011;39042;53.150;5.898;2023-11-19T19:35:58;21.93;;;3.13;;
53145;SDS011;39042;53.150;5.898;2023-11-19T19:38:24;22.10;;;3.42;;
53145;SDS011;39042;53.150;5.898;2023-11-19T19:40:50;21.07;;;2.47;;
53145;SDS011;39042;53.150;5.898;2023-11-19T19:43:16;29.80;;;4.50;;
53145;SDS011;39042;53.150;5.898;2023-11-19T19:45:42;32.43;;;5.37;;
53145;SDS011;39042;53.150;5.898;2023-11-19T19:48:08;21.53;;;3.60;;
53145;SDS011;39042;53.150;5.898;2023-11-19T19:50:34;19.05;;;2.90;;
53145;SDS011;39042;53.150;5.898;2023-11-19T19:53:01;18.45;;;2.10;;
53145;SDS011;39042;53.150;5.898;2023-11-19T19:55:27;15.55;;;2.85;;
53145;SDS011;39042;53.150;5.898;2023-11-19T19:57:52;60.53;;;25.13;;
53145;SDS011;39042;53.150;5.898;2023-11-19T20:00:18;61.53;;;23.67;;
53145;SDS011;39042;53.150;5.898;2023-11-19T20:02:44;117.28;;;52.95;;
53145;SDS011;39042;53.150;5.898;2023-11-19T20:05:10;140.73;;;81.38;;
53145;SDS011;39042;53.150;5.898;2023-11-19T20:07:37;41.40;;;21.70;;
53145;SDS011;39042;53.150;5.898;2023-11-19T20:10:04;30.13;;;8.63;;
53145;SDS011;39042;53.150;5.898;2023-11-19T20:14:57;32.72;;;12.93;;
53145;SDS011;39042;53.150;5.898;2023-11-19T20:17:26;31.13;;;9.70;;
53145;SDS011;39042;53.150;5.898;2023-11-19T20:19:53;24.02;;;7.00;;
53145;SDS011;39042;53.150;5.898;2023-11-19T20:22:19;27.63;;;3.53;;
53145;SDS011;39042;53.150;5.898;2023-11-19T20:24:45;23.57;;;3.80;;
53145;SDS011;39042;53.150;5.898;2023-11-19T20:27:11;19.00;;;2.30;;
53145;SDS011;39042;53.150;5.898;2023-11-19T20:29:43;19.05;;;2.40;;
53145;SDS011;39042;53.150;5.898;2023-11-19T20:32:10;18.30;;;3.35;;
53145;SDS011;39042;53.150;5.898;2023-11-19T20:34:36;17.55;;;3.22;;
53145;SDS011;39042;53.150;5.898;2023-11-19T20:37:02;16.93;;;3.00;;
53145;SDS011;39042;53.150;5.898;2023-11-19T20:39:28;18.08;;;4.18;;
53145;SDS011;39042;53.150;5.898;2023-11-19T20:41:54;21.98;;;3.90;;
53145;SDS011;39042;53.150;5.898;2023-11-19T20:44:20;22.00;;;3.28;;
53145;SDS011;39042;53.150;5.898;2023-11-19T20:46:45;22.43;;;2.87;;
53145;SDS011;39042;53.150;5.898;2023-11-19T20:49:12;20.53;;;3.20;;
53145;SDS011;39042;53.150;5.898;2023-11-19T20:51:38;25.00;;;2.88;;
53145;SDS011;39042;53.150;5.898;2023-11-19T20:54:04;29.10;;;3.73;;
53145;SDS011;39042;53.150;5.898;2023-11-19T20:56:31;22.33;;;3.08;;
53145;SDS011;39042;53.150;5.898;2023-11-19T20:58:57;23.23;;;3.60;;
53145;SDS011;39042;53.150;5.898;2023-11-19T21:01:26;21.88;;;3.45;;
53145;SDS011;39042;53.150;5.898;2023-11-19T21:03:52;26.38;;;3.50;;
53145;SDS011;39042;53.150;5.898;2023-11-19T21:06:18;29.95;;;5.38;;
53145;SDS011;39042;53.150;5.898;2023-11-19T21:08:45;29.75;;;4.57;;
53145;SDS011;39042;53.150;5.898;2023-11-19T21:11:11;25.33;;;4.00;;
53145;SDS011;39042;53.150;5.898;2023-11-19T21:13:37;31.30;;;4.13;;
53145;SDS011;39042;53.150;5.898;2023-11-19T21:16:03;31.23;;;4.55;;
53145;SDS011;39042;53.150;5.898;2023-11-19T21:18:29;18.52;;;3.50;;
53145;SDS011;39042;53.150;5.898;2023-11-19T21:20:55;24.73;;;2.93;;
53145;SDS011;39042;53.150;5.898;2023-11-19T21:23:22;26.27;;;2.78;;
53145;SDS011;39042;53.150;5.898;2023-11-19T21:25:47;25.17;;;3.03;;
53145;SDS011;39042;53.150;5.898;2023-11-19T21:28:13;27.83;;;3.45;;
53145;SDS011;39042;53.150;5.898;2023-11-19T21:30:40;25.02;;;4.15;;
53145;SDS011;39042;53.150;5.898;2023-11-19T21:33:07;28.40;;;3.85;;
53145;SDS011;39042;53.150;5.898;2023-11-19T21:35:33;27.35;;;3.72;;
53145;SDS011;39042;53.150;5.898;2023-11-19T21:37:59;25.67;;;4.30;;
53145;SDS011;39042;53.150;5.898;2023-11-19T21:40:25;22.63;;;3.50;;